createdAt,value
2023-04-05T00:00:46.415Z,12.90
2023-04-05T00:03:17.786Z,11.52
2023-04-05T00:05:45.897Z,16.35
2023-04-05T00:08:23.612Z,11.50
2023-04-05T00:10:51.318Z,9.70
2023-04-05T00:13:18.618Z,12.93
2023-04-05T00:15:45.951Z,10.20
2023-04-05T00:18:21.623Z,12.05
2023-04-05T00:20:49.374Z,10.25
2023-04-05T00:23:17.502Z,13.82
2023-04-05T00:25:44.887Z,10.50
2023-04-05T00:28:12.407Z,11.18
2023-04-05T00:30:40.018Z,10.45
2023-04-05T00:33:07.634Z,15.43
2023-04-05T00:35:36.312Z,13.52
2023-04-05T00:38:03.639Z,13.95
2023-04-05T00:40:30.943Z,12.55
2023-04-05T00:42:58.225Z,11.45
2023-04-05T00:45:25.915Z,13.50
2023-04-05T00:47:53.256Z,11.32
2023-04-05T00:50:21.506Z,13.55
2023-04-05T00:52:51.183Z,14.15
2023-04-05T00:55:18.783Z,12.25
2023-04-05T00:57:46.112Z,12.80
2023-04-05T01:00:15.084Z,14.63
2023-04-05T01:02:45.774Z,16.08
2023-04-05T01:05:18.167Z,13.05
2023-04-05T01:07:51.427Z,17.92
2023-04-05T01:10:23.099Z,10.55
2023-04-05T01:12:50.726Z,10.00
2023-04-05T01:15:18.801Z,14.35
2023-04-05T01:17:46.961Z,8.88
2023-04-05T01:20:15.039Z,12.25
2023-04-05T01:22:52.967Z,12.68
2023-04-05T01:25:38.270Z,11.38
2023-04-05T01:28:35.973Z,13.13
2023-04-05T01:31:07.881Z,14.43
2023-04-05T01:33:39.744Z,15.57
2023-04-05T01:36:09.618Z,15.43
2023-04-05T01:38:39.785Z,11.30
2023-04-05T01:41:07.494Z,14.40
2023-04-05T01:43:34.840Z,17.50
2023-04-05T01:46:02.233Z,12.95
2023-04-05T01:48:30.946Z,16.17
2023-04-05T01:50:58.235Z,12.68
2023-04-05T01:53:25.696Z,10.40
2023-04-05T01:55:53.010Z,13.93
2023-04-05T01:58:20.342Z,13.05
2023-04-05T02:00:47.621Z,12.50
2023-04-05T02:03:15.046Z,14.82
2023-04-05T02:05:44.392Z,13.27
2023-04-05T02:08:11.666Z,11.43
2023-04-05T02:10:39.188Z,14.55
2023-04-05T02:13:06.686Z,11.88
2023-04-05T02:15:34.009Z,12.55
2023-04-05T02:18:02.125Z,12.38
2023-04-05T02:20:29.838Z,13.80
2023-04-05T02:22:58.452Z,12.02
2023-04-05T02:25:25.755Z,14.38
2023-04-05T02:27:53.111Z,10.18
2023-04-05T02:30:20.460Z,16.05
2023-04-05T02:32:47.828Z,18.58
2023-04-05T02:35:17.083Z,10.77
2023-04-05T02:37:44.338Z,13.68
2023-04-05T02:40:14.848Z,13.75
2023-04-05T02:42:42.264Z,12.45
2023-04-05T02:45:09.841Z,15.93
2023-04-05T02:47:37.209Z,11.43
2023-04-05T02:50:04.817Z,13.90
2023-04-05T02:52:32.127Z,13.88
2023-04-05T02:54:59.448Z,13.38
2023-04-05T02:57:28.150Z,14.27
2023-04-05T02:59:55.429Z,15.60
2023-04-05T03:02:22.825Z,15.95
2023-04-05T03:04:52.249Z,15.10
2023-04-05T03:07:19.571Z,12.10
2023-04-05T03:09:47.440Z,15.90
2023-04-05T03:12:14.788Z,13.43
2023-04-05T03:14:43.543Z,19.67
2023-04-05T03:17:10.839Z,13.50
2023-04-05T03:19:38.512Z,16.95
2023-04-05T03:22:05.865Z,15.07
2023-04-05T03:24:33.154Z,16.10
2023-04-05T03:27:02.387Z,14.30
2023-04-05T03:29:30.293Z,15.82
2023-04-05T03:31:59.809Z,15.05
2023-04-05T03:34:28.673Z,15.25
2023-04-05T03:36:55.995Z,12.57
2023-04-05T03:39:23.269Z,14.15
2023-04-05T03:41:50.630Z,17.13
2023-04-05T03:44:17.900Z,14.00
2023-04-05T03:46:45.241Z,13.52
2023-04-05T03:49:13.939Z,16.38
2023-04-05T03:51:41.932Z,17.30
2023-04-05T03:54:09.185Z,14.63
2023-04-05T03:56:36.647Z,12.98
2023-04-05T03:59:04.001Z,18.73
2023-04-05T04:01:31.448Z,13.43
2023-04-05T04:04:00.183Z,13.73
2023-04-05T04:06:30.594Z,14.75
2023-04-05T04:08:57.934Z,13.20
2023-04-05T04:11:25.772Z,11.57
2023-04-05T04:13:53.096Z,17.38
2023-04-05T04:16:20.560Z,18.77
2023-04-05T04:18:47.897Z,15.48
2023-04-05T04:21:17.088Z,14.23
2023-04-05T04:23:45.912Z,15.25
2023-04-05T04:26:14.171Z,13.48
2023-04-05T04:28:43.678Z,16.10
2023-04-05T04:31:13.445Z,16.55
2023-04-05T04:33:43.477Z,16.35
2023-04-05T04:36:13.681Z,14.45
2023-04-05T04:38:42.598Z,16.83
2023-04-05T04:41:11.297Z,19.38
2023-04-05T04:43:43.784Z,14.90
2023-04-05T04:46:14.672Z,14.00
2023-04-05T04:48:43.036Z,13.90
2023-04-05T04:51:10.479Z,14.27
2023-04-05T04:53:37.753Z,15.70
2023-04-05T04:56:07.243Z,17.38
2023-04-05T04:58:35.946Z,15.00
2023-04-05T05:01:08.560Z,15.50
2023-04-05T05:03:36.467Z,14.40
2023-04-05T05:06:04.720Z,19.42
2023-04-05T05:08:32.038Z,16.90
2023-04-05T05:10:59.465Z,18.67
2023-04-05T05:13:26.769Z,18.80
2023-04-05T05:15:56.068Z,18.25
2023-04-05T05:18:23.367Z,20.42
2023-04-05T05:20:51.746Z,19.92
2023-04-05T05:23:21.021Z,23.00
2023-04-05T05:25:48.654Z,15.82
2023-04-05T05:28:16.428Z,15.90
2023-04-05T05:30:44.759Z,14.15
2023-04-05T05:33:13.608Z,19.30
2023-04-05T05:35:40.907Z,24.30
2023-04-05T05:38:10.773Z,17.10
2023-04-05T05:40:40.270Z,19.35
2023-04-05T05:43:07.765Z,15.85
2023-04-05T05:45:35.454Z,13.40
2023-04-05T05:48:02.769Z,13.70
2023-04-05T05:50:32.885Z,16.38
2023-04-05T05:53:01.797Z,17.05
2023-04-05T05:55:29.386Z,14.02
2023-04-05T05:57:56.728Z,13.80
2023-04-05T06:00:24.243Z,15.10
2023-04-05T06:02:52.702Z,18.73
2023-04-05T06:05:20.237Z,14.93
2023-04-05T06:07:48.905Z,15.48
2023-04-05T06:10:16.289Z,16.85
2023-04-05T06:12:43.609Z,14.50
2023-04-05T06:15:11.324Z,17.50
2023-04-05T06:17:42.136Z,16.67
2023-04-05T06:20:10.112Z,12.27
2023-04-05T06:22:37.438Z,13.32
2023-04-05T06:25:06.556Z,18.92
2023-04-05T06:27:33.885Z,15.57
2023-04-05T06:30:01.222Z,16.27
2023-04-05T06:32:28.627Z,14.40
2023-04-05T06:34:56.039Z,12.48
2023-04-05T06:37:23.358Z,17.83
2023-04-05T06:39:50.648Z,16.75
2023-04-05T06:42:19.283Z,20.33
2023-04-05T06:44:46.565Z,19.63
2023-04-05T06:47:13.914Z,15.02
2023-04-05T06:49:41.323Z,15.90
2023-04-05T06:52:08.612Z,15.60
2023-04-05T06:54:38.242Z,14.68
2023-04-05T06:57:05.736Z,12.65
2023-04-05T06:59:34.594Z,13.57
2023-04-05T07:02:01.897Z,12.82
2023-04-05T07:04:33.075Z,15.32
2023-04-05T07:07:01.910Z,18.20
2023-04-05T07:09:30.649Z,16.77
2023-04-05T07:11:58.188Z,19.67
2023-04-05T07:14:25.807Z,14.55
2023-04-05T07:16:54.461Z,19.27
2023-04-05T07:19:22.031Z,14.07
2023-04-05T07:21:49.427Z,15.90
2023-04-05T07:24:16.767Z,15.05
2023-04-05T07:26:44.111Z,17.48
2023-04-05T07:29:11.776Z,15.15
2023-04-05T07:31:39.412Z,17.55
2023-04-05T07:34:08.090Z,20.88
2023-04-05T07:36:37.149Z,20.30
2023-04-05T07:39:05.214Z,21.23
2023-04-05T07:41:32.861Z,20.70
2023-04-05T07:44:00.199Z,13.18
2023-04-05T07:46:28.161Z,16.63
2023-04-05T07:48:55.556Z,16.80
2023-04-05T07:51:24.211Z,16.95
2023-04-05T07:53:51.647Z,18.13
2023-04-05T07:56:18.954Z,15.00
2023-04-05T07:58:47.426Z,15.30
2023-04-05T08:01:14.742Z,16.90
2023-04-05T08:03:42.080Z,15.90
2023-04-05T08:06:12.996Z,17.58
2023-04-05T08:08:42.116Z,18.00
2023-04-05T08:11:09.446Z,22.42
2023-04-05T08:13:38.579Z,13.05
2023-04-05T08:16:06.205Z,16.25
2023-04-05T08:18:33.720Z,11.30
2023-04-05T08:21:01.946Z,13.80
2023-04-05T08:23:29.244Z,12.57
2023-04-05T08:25:57.884Z,12.45
2023-04-05T08:28:25.191Z,15.30
2023-04-05T08:30:54.228Z,17.00
2023-04-05T08:33:21.593Z,15.43
2023-04-05T08:35:48.870Z,11.15
2023-04-05T08:38:16.221Z,17.85
2023-04-05T08:40:44.262Z,16.58
2023-04-05T08:43:14.418Z,14.80
2023-04-05T08:45:50.242Z,12.05
2023-04-05T08:48:17.875Z,10.73
2023-04-05T08:50:51.432Z,12.13
2023-04-05T08:53:18.871Z,13.50
2023-04-05T08:55:48.593Z,11.40
2023-04-05T08:58:17.547Z,11.73
2023-04-05T09:00:44.926Z,12.15
2023-04-05T09:03:16.235Z,13.07
2023-04-05T09:05:45.733Z,11.50
2023-04-05T09:08:13.993Z,12.27
2023-04-05T09:10:41.722Z,10.30
2023-04-05T09:13:12.724Z,12.23
2023-04-05T09:15:41.510Z,10.10
2023-04-05T09:18:19.047Z,12.93
2023-04-05T09:20:56.954Z,12.93
2023-04-05T09:23:24.236Z,13.23
2023-04-05T09:25:52.970Z,12.95
2023-04-05T09:28:20.327Z,12.20
2023-04-05T09:30:49.256Z,10.90
2023-04-05T09:33:19.521Z,10.43
2023-04-05T09:35:50.864Z,9.63
2023-04-05T09:38:18.266Z,15.32
2023-04-05T09:40:46.929Z,12.60
2023-04-05T09:43:16.054Z,14.32
2023-04-05T09:45:45.870Z,13.02
2023-04-05T09:48:14.539Z,14.52
2023-04-05T09:50:41.982Z,14.48
2023-04-05T09:53:10.329Z,12.60
2023-04-05T09:55:37.763Z,15.93
2023-04-05T09:58:05.252Z,10.90
2023-04-05T10:00:33.255Z,12.50
2023-04-05T10:03:00.708Z,11.73
2023-04-05T10:05:29.889Z,12.90
2023-04-05T10:07:57.611Z,13.32
2023-04-05T10:10:25.140Z,14.20
2023-04-05T10:12:52.996Z,13.75
2023-04-05T10:15:20.414Z,13.18
2023-04-05T10:17:49.361Z,10.57
2023-04-05T10:20:17.721Z,17.60
2023-04-05T10:22:49.792Z,11.48
2023-04-05T10:25:22.761Z,12.85
2023-04-05T10:27:53.051Z,11.40
2023-04-05T10:30:20.426Z,13.48
2023-04-05T10:32:53.968Z,9.63
2023-04-05T10:35:25.325Z,7.05
2023-04-05T10:38:01.986Z,12.07
2023-04-05T10:40:32.976Z,9.88
2023-04-05T10:43:01.045Z,9.60
2023-04-05T10:45:28.654Z,9.00
2023-04-05T10:47:58.932Z,8.15
2023-04-05T10:50:26.381Z,10.85
2023-04-05T10:52:54.120Z,8.43
2023-04-05T10:55:23.408Z,11.05
2023-04-05T10:57:51.081Z,14.55
2023-04-05T11:00:18.950Z,13.18
2023-04-05T11:02:46.424Z,14.85
2023-04-05T11:05:30.105Z,13.18
2023-04-05T11:08:00.584Z,12.90
2023-04-05T11:10:29.658Z,11.02
2023-04-05T11:13:10.525Z,12.82
2023-04-05T11:15:38.449Z,16.58
2023-04-05T11:18:06.814Z,10.82
2023-04-05T11:20:44.212Z,13.63
2023-04-05T11:23:12.147Z,14.90
2023-04-05T11:25:41.405Z,11.75
2023-04-05T11:28:09.526Z,9.80
2023-04-05T11:30:50.631Z,13.10
2023-04-05T11:33:36.089Z,14.95
2023-04-05T11:36:03.906Z,13.40
2023-04-05T11:38:31.466Z,10.63
2023-04-05T11:41:13.189Z,14.57
2023-04-05T11:43:42.368Z,11.95
2023-04-05T11:46:09.754Z,12.90
2023-04-05T11:48:37.209Z,12.90
2023-04-05T11:51:08.444Z,15.10
2023-04-05T11:53:35.964Z,13.30
2023-04-05T11:56:09.836Z,10.00
2023-04-05T11:58:37.905Z,11.50
2023-04-05T12:01:06.328Z,11.00
2023-04-05T12:03:34.170Z,14.00
2023-04-05T12:06:02.268Z,13.40
2023-04-05T12:08:39.234Z,11.38
2023-04-05T12:11:09.123Z,10.77
2023-04-05T12:13:36.725Z,15.55
2023-04-05T12:16:04.863Z,11.32
2023-04-05T12:18:33.039Z,11.38
2023-04-05T12:21:00.931Z,12.38
2023-04-05T12:23:28.399Z,13.35
2023-04-05T12:25:56.894Z,14.18
2023-04-05T12:28:25.681Z,15.48
2023-04-05T12:30:53.591Z,13.10
2023-04-05T12:33:27.769Z,12.82
2023-04-05T12:35:55.334Z,13.48
2023-04-05T12:38:26.015Z,13.88
2023-04-05T12:40:53.464Z,13.60
2023-04-05T12:43:20.783Z,12.70
2023-04-05T12:45:50.766Z,13.02
2023-04-05T12:48:22.004Z,11.60
2023-04-05T12:50:51.907Z,13.00
2023-04-05T12:53:20.388Z,14.88
2023-04-05T12:55:51.691Z,12.55
2023-04-05T12:58:19.290Z,13.50
2023-04-05T13:00:46.827Z,19.00
2023-04-05T13:03:20.723Z,14.98
2023-04-05T13:05:49.128Z,15.25
2023-04-05T13:08:18.167Z,13.85
2023-04-05T13:10:45.907Z,12.75
2023-04-05T13:13:13.578Z,14.38
2023-04-05T13:15:41.139Z,11.77
2023-04-05T13:18:08.957Z,16.63
2023-04-05T13:20:38.496Z,13.45
2023-04-05T13:23:10.698Z,14.85
2023-04-05T13:25:38.000Z,15.60
2023-04-05T13:28:05.354Z,14.43
2023-04-05T13:30:32.804Z,13.02
2023-04-05T13:33:00.213Z,13.10
2023-04-05T13:35:30.564Z,11.52
2023-04-05T13:38:01.105Z,12.30
2023-04-05T13:40:29.845Z,15.07
2023-04-05T13:42:57.125Z,13.05
2023-04-05T13:45:24.415Z,12.85
2023-04-05T13:47:51.799Z,13.77
2023-04-05T13:50:19.121Z,14.68
2023-04-05T13:52:46.534Z,14.77
2023-04-05T13:55:16.020Z,18.02
2023-04-05T13:57:43.302Z,12.07
2023-04-05T14:00:11.459Z,12.07
2023-04-05T14:02:39.112Z,10.55
2023-04-05T14:05:07.191Z,13.50
2023-04-05T14:07:34.654Z,14.27
2023-04-05T14:10:01.980Z,12.38
2023-04-05T14:12:31.456Z,11.35
2023-04-05T14:15:00.027Z,13.23
2023-04-05T14:17:27.590Z,12.00
2023-04-05T14:19:55.061Z,11.85
2023-04-05T14:22:22.544Z,10.35
2023-04-05T14:24:49.872Z,12.65
2023-04-05T14:27:17.394Z,12.77
2023-04-05T14:29:46.469Z,16.15
2023-04-05T14:32:13.973Z,13.35
2023-04-05T14:34:41.469Z,11.23
2023-04-05T14:37:08.940Z,14.13
2023-04-05T14:39:36.277Z,14.15
2023-04-05T14:42:03.718Z,11.30
2023-04-05T14:44:31.478Z,12.88
2023-04-05T14:47:00.228Z,11.75
2023-04-05T14:49:27.609Z,13.70
2023-04-05T14:51:54.995Z,13.70
2023-04-05T14:54:23.442Z,13.10
2023-04-05T14:56:50.824Z,11.98
2023-04-05T14:59:18.303Z,13.27
2023-04-05T15:01:47.107Z,15.25
2023-04-05T15:04:15.894Z,13.07
2023-04-05T15:06:43.305Z,12.52
2023-04-05T15:09:10.685Z,15.43
2023-04-05T15:11:39.157Z,16.52
2023-04-05T15:14:07.467Z,13.35
2023-04-05T15:16:36.248Z,14.68
2023-04-05T15:19:03.738Z,13.73
2023-04-05T15:21:32.532Z,14.30
2023-04-05T15:24:02.032Z,11.77
2023-04-05T15:26:29.393Z,15.52
2023-04-05T15:28:56.770Z,11.23
2023-04-05T15:31:24.162Z,11.10
2023-04-05T15:33:52.052Z,13.27
2023-04-05T15:36:19.490Z,12.23
2023-04-05T15:38:48.468Z,13.48
2023-04-05T15:41:15.924Z,15.70
2023-04-05T15:43:43.340Z,12.10
2023-04-05T15:46:10.714Z,13.65
2023-04-05T15:48:38.067Z,14.30
2023-04-05T15:51:05.525Z,13.32
2023-04-05T15:53:32.960Z,13.65
2023-04-05T15:56:01.701Z,10.65
2023-04-05T15:58:29.162Z,13.30
2023-04-05T16:00:56.518Z,16.58
2023-04-05T16:03:24.033Z,15.93
2023-04-05T16:05:51.614Z,13.45
2023-04-05T16:08:18.988Z,13.90
2023-04-05T16:10:46.373Z,16.08
2023-04-05T16:13:15.284Z,15.85
2023-04-05T16:15:42.735Z,15.38
2023-04-05T16:18:12.119Z,10.98
2023-04-05T16:20:39.608Z,13.43
2023-04-05T16:23:06.982Z,11.00
2023-04-05T16:25:34.456Z,15.75
2023-04-05T16:28:01.813Z,14.00
2023-04-05T16:30:30.593Z,13.82
2023-04-05T16:32:58.290Z,11.02
2023-04-05T16:35:25.704Z,12.35
2023-04-05T16:37:53.103Z,9.10
2023-04-05T16:40:20.620Z,12.73
2023-04-05T16:42:48.041Z,10.43
2023-04-05T16:45:15.392Z,12.57
2023-04-05T16:47:44.442Z,11.80
2023-04-05T16:50:11.870Z,12.05
2023-04-05T16:52:39.273Z,12.52
2023-04-05T16:55:07.062Z,13.23
2023-04-05T16:57:34.633Z,12.13
2023-04-05T17:00:02.052Z,12.02
2023-04-05T17:02:29.558Z,13.38
2023-04-05T17:04:58.356Z,12.77
2023-04-05T17:07:25.727Z,13.38
2023-04-05T17:09:53.128Z,12.77
2023-04-05T17:12:20.822Z,12.30
2023-04-05T17:14:48.240Z,11.60
2023-04-05T17:17:15.625Z,10.57
2023-04-05T17:19:43.593Z,11.32
2023-04-05T17:22:12.412Z,9.07
2023-04-05T17:24:41.021Z,9.23
2023-04-05T17:27:08.422Z,9.15
2023-04-05T17:29:35.800Z,12.75
2023-04-05T17:32:03.168Z,9.80
2023-04-05T17:34:30.556Z,11.43
2023-04-05T17:36:57.922Z,9.82
2023-04-05T17:39:26.614Z,13.50
2023-04-05T17:41:55.799Z,13.05
2023-04-05T17:44:23.345Z,10.57
2023-04-05T17:47:01.310Z,15.75
2023-04-05T17:49:36.369Z,12.43
2023-04-05T17:52:03.918Z,10.98
2023-04-05T17:54:36.832Z,10.23
2023-04-05T17:57:04.781Z,10.52
2023-04-05T17:59:32.250Z,13.52
2023-04-05T18:01:59.994Z,10.57
2023-04-05T18:04:27.473Z,9.75
2023-04-05T18:06:54.828Z,9.20
2023-04-05T18:09:22.185Z,10.50
2023-04-05T18:11:51.243Z,10.32
2023-04-05T18:14:18.673Z,11.77
2023-04-05T18:16:46.235Z,12.10
2023-04-05T18:19:13.680Z,11.60
2023-04-05T18:21:41.049Z,12.23
2023-04-05T18:24:08.572Z,12.45
2023-04-05T18:26:35.926Z,11.38
2023-04-05T18:29:05.301Z,11.40
2023-04-05T18:31:32.864Z,9.88
2023-04-05T18:34:01.003Z,13.32
2023-04-05T18:36:28.374Z,13.57
2023-04-05T18:38:55.878Z,11.98
2023-04-05T18:41:23.345Z,19.20
2023-04-05T18:43:53.404Z,14.45
2023-04-05T18:46:23.290Z,12.90
2023-04-05T18:48:54.311Z,14.13
2023-04-05T18:51:21.966Z,14.80
2023-04-05T18:53:49.386Z,13.52
2023-04-05T18:56:16.997Z,14.68
2023-04-05T18:58:44.541Z,16.42
2023-04-05T19:01:14.407Z,14.43
2023-04-05T19:03:43.352Z,15.52
2023-04-05T19:06:10.793Z,16.55
2023-04-05T19:08:38.193Z,16.98
2023-04-05T19:11:06.016Z,15.85
2023-04-05T19:13:33.513Z,13.75
2023-04-05T19:16:01.058Z,14.95
2023-04-05T19:18:29.684Z,15.25
2023-04-05T19:21:01.148Z,17.17
2023-04-05T19:23:29.061Z,30.90
2023-04-05T19:25:57.197Z,24.30
2023-04-05T19:28:24.644Z,29.80
2023-04-05T19:30:52.041Z,19.95
2023-04-05T19:33:21.583Z,16.50
2023-04-05T19:35:49.363Z,15.98
2023-04-05T19:38:18.131Z,13.85
2023-04-05T19:40:45.491Z,13.63
2023-04-05T19:43:13.295Z,13.60
2023-04-05T19:45:40.695Z,12.52
2023-04-05T19:48:28.587Z,17.45
2023-04-05T19:51:02.702Z,14.00
2023-04-05T19:53:40.340Z,17.70
2023-04-05T19:56:09.436Z,15.10
2023-04-05T19:58:36.828Z,13.77
2023-04-05T20:01:04.280Z,20.95
2023-04-05T20:03:32.579Z,12.50
2023-04-05T20:06:13.004Z,12.77
2023-04-05T20:08:42.603Z,14.65
2023-04-05T20:11:12.118Z,16.75
2023-04-05T20:13:41.714Z,18.00
2023-04-05T20:16:10.350Z,13.13
2023-04-05T20:18:37.971Z,14.80
2023-04-05T20:21:05.724Z,15.07
2023-04-05T20:23:33.384Z,14.40
2023-04-05T20:26:02.088Z,15.35
2023-04-05T20:28:35.220Z,14.07
2023-04-05T20:31:02.701Z,13.45
2023-04-05T20:33:40.460Z,15.18
2023-04-05T20:36:10.800Z,13.65
2023-04-05T20:38:38.568Z,13.68
2023-04-05T20:41:08.158Z,15.38
2023-04-05T20:43:35.905Z,15.35
2023-04-05T20:46:03.856Z,12.85
2023-04-05T20:48:31.617Z,17.05
2023-04-05T20:51:00.919Z,20.58
2023-04-05T20:53:28.640Z,14.90
2023-04-05T20:55:56.086Z,17.30
2023-04-05T20:58:24.781Z,14.90
2023-04-05T21:00:52.204Z,21.48
2023-04-05T21:03:19.736Z,14.38
2023-04-05T21:05:47.197Z,19.30
2023-04-05T21:08:14.540Z,15.07
2023-04-05T21:10:42.291Z,18.88
2023-04-05T21:13:09.722Z,16.95
2023-04-05T21:15:38.510Z,13.68
2023-04-05T21:18:08.087Z,15.63
2023-04-05T21:20:36.875Z,15.57
2023-04-05T21:23:04.874Z,12.65
2023-04-05T21:25:32.272Z,14.20
2023-04-05T21:28:00.102Z,14.38
2023-04-05T21:30:27.802Z,13.98
2023-04-05T21:32:57.330Z,13.10
2023-04-05T21:35:24.858Z,15.80
2023-04-05T21:37:52.302Z,12.68
2023-04-05T21:40:19.750Z,18.15
2023-04-05T21:42:47.200Z,13.20
2023-04-05T21:45:14.609Z,14.30
2023-04-05T21:47:42.048Z,17.70
2023-04-05T21:50:10.939Z,16.73
2023-04-05T21:52:38.386Z,15.80
2023-04-05T21:55:06.226Z,15.07
2023-04-05T21:57:34.453Z,15.85
2023-04-05T22:00:05.123Z,15.65
2023-04-05T22:02:32.548Z,17.92
2023-04-05T22:05:00.004Z,13.38
2023-04-05T22:07:28.753Z,16.98
2023-04-05T22:09:56.274Z,15.02
2023-04-05T22:12:23.716Z,15.50
2023-04-05T22:14:51.272Z,17.17
2023-04-05T22:17:18.919Z,15.25
2023-04-05T22:19:47.454Z,16.13
2023-04-05T22:22:15.035Z,19.77
2023-04-05T22:24:44.080Z,15.27
2023-04-05T22:27:12.260Z,17.70
2023-04-05T22:29:39.802Z,14.85
2023-04-05T22:32:07.421Z,21.65
2023-04-05T22:34:35.018Z,16.65
2023-04-05T22:37:02.784Z,17.20
2023-04-05T22:39:30.176Z,19.17
2023-04-05T22:41:58.920Z,18.55
2023-04-05T22:44:26.326Z,22.85
2023-04-05T22:46:53.749Z,19.02
2023-04-05T22:49:21.443Z,17.92
2023-04-05T22:51:48.806Z,21.25
2023-04-05T22:54:16.306Z,23.15
2023-04-05T22:56:43.661Z,19.35
2023-04-05T22:59:12.574Z,20.13
2023-04-05T23:01:40.027Z,20.55
2023-04-05T23:04:07.708Z,19.52
2023-04-05T23:06:35.210Z,20.77
2023-04-05T23:09:04.228Z,20.85
2023-04-05T23:11:31.620Z,26.23
2023-04-05T23:13:59.019Z,20.20
2023-04-05T23:16:27.832Z,23.35
2023-04-05T23:18:55.355Z,22.63
2023-04-05T23:21:22.679Z,23.27
2023-04-05T23:23:50.054Z,20.05
2023-04-05T23:26:17.462Z,18.55
2023-04-05T23:28:44.824Z,22.40
2023-04-05T23:31:12.177Z,22.50
2023-04-05T23:33:40.943Z,20.73
2023-04-05T23:36:08.948Z,19.00
2023-04-05T23:38:36.832Z,22.17
2023-04-05T23:41:04.336Z,20.20
2023-04-05T23:43:31.719Z,18.60
2023-04-05T23:45:59.081Z,21.52
2023-04-05T23:48:27.173Z,20.33
2023-04-05T23:50:56.080Z,20.73
2023-04-05T23:53:23.456Z,24.33
2023-04-05T23:55:53.221Z,21.33
2023-04-05T23:58:21.035Z,23.65
